Douglas Observed Data For Previous 48 Hours

Caption
Day and Hour Reservoir Elevation (behind dam)* Tailwater Elevation (below dam)* Average Hourly Discharge*
1/15/2018 2 AM EST 954.25 868.79 0
1/15/2018 3 AM EST 954.33 868.56 15
1/15/2018 4 AM EST 954.33 872.30 5,087
1/15/2018 5 AM EST 954.39 873.16 8,749
1/15/2018 6 AM EST 954.42 874.57 13,281
1/15/2018 7 AM EST 954.40 874.73 13,364
1/15/2018 8 AM EST 954.39 874.72 13,381
1/15/2018 9 AM EST 954.40 874.71 13,359
1/15/2018 10 AM EST 954.41 874.68 13,312
1/15/2018 11 AM EST 954.41 873.37 9,063
1/15/2018 12 PM EST 954.44 873.28 8,974
1/15/2018 1 PM EST 954.46 873.31 8,980
1/15/2018 2 PM EST 954.49 873.29 8,963
1/15/2018 3 PM EST 954.51 873.30 8,978
1/15/2018 4 PM EST 954.53 873.30 8,978
1/15/2018 5 PM EST 954.56 873.31 8,997
1/15/2018 6 PM EST 954.57 873.25 8,984
1/15/2018 7 PM EST 954.58 873.44 9,000
1/15/2018 8 PM EST 954.58 874.66 13,246
1/15/2018 9 PM EST 954.58 874.65 13,308
1/15/2018 10 PM EST 954.54 874.67 13,343
1/15/2018 11 PM EST 954.54 874.70 13,330
1/16/2018 12 AM EST 954.54 874.66 13,314
1/16/2018 1 AM EST 954.54 873.36 9,050
1/16/2018 2 AM EST 954.61 869.86 142
1/16/2018 3 AM EST 954.68 868.97 0
1/16/2018 4 AM EST 954.75 868.80 18
1/16/2018 5 AM EST 954.72 873.04 8,595
1/16/2018 6 AM EST 954.74 874.58 13,265
1/16/2018 7 AM EST 954.72 874.68 13,309
1/16/2018 8 AM EST 954.68 874.74 13,337
1/16/2018 9 AM EST 954.67 874.76 13,426
1/16/2018 10 AM EST 954.66 874.79 13,406
1/16/2018 11 AM EST 954.64 874.70 13,365
1/16/2018 12 PM EST 954.60 874.68 13,334
1/16/2018 1 PM EST 954.56 874.71 13,339
1/16/2018 2 PM EST 954.55 874.71 13,381
1/16/2018 3 PM EST 954.52 874.75 13,356
1/16/2018 4 PM EST 954.49 874.75 13,369
1/16/2018 5 PM EST 954.47 874.70 13,339
1/16/2018 6 PM EST 954.44 874.87 13,550
1/16/2018 7 PM EST 954.41 874.99 14,681
1/16/2018 8 PM EST 954.38 875.06 14,640
1/16/2018 9 PM EST 954.35 875.05 14,633
1/16/2018 10 PM EST 954.30 875.02 14,638
1/16/2018 11 PM EST 954.26 875.06 14,611
1/17/2018 12 AM EST 954.23 874.80 13,664
1/17/2018 1 AM EST 954.23 873.38 9,104
1/17/2018 2 AM EST 954.22 873.34 9,031
1/17/2018 3 AM EST 954.20 873.48 9,083
1/17/2018 4 AM EST 954.18 874.66 13,252
1/17/2018 5 AM EST 954.13 874.93 13,858
1/17/2018 6 AM EST 954.06 875.08 14,615
1/17/2018 7 AM EST 954.02 874.98 14,601
1/17/2018 8 AM EST 954.00 875.04 14,591
1/17/2018 9 AM EST 953.96 875.02 14,594
1/17/2018 10 AM EST 953.90 875.01 14,593
1/17/2018 11 AM EST 953.85 875.02 14,586
1/17/2018 12 PM EST 953.82 874.77 13,675
1/17/2018 1 PM EST 953.82 873.41 9,064
1/17/2018 2 PM EST 953.80 873.31 8,975
1/17/2018 3 PM EST 953.81 873.30 8,973
1/17/2018 4 PM EST 953.79 873.28 8,996
1/17/2018 5 PM EST 953.74 873.46 9,052
1/17/2018 6 PM EST 953.69 874.80 13,395
1/17/2018 7 PM EST 953.65 874.98 14,593
1/17/2018 8 PM EST 953.59 875.03 14,604
1/17/2018 9 PM EST 953.55 875.00 14,581
1/17/2018 10 PM EST 953.51 875.04 14,589

Elevations are in feet above sea level. Discharges are in cubic feet per second and are reported at the end of the hour.